createdAt,value
2023-01-23T00:01:41.503Z,28.52
2023-01-23T00:04:15.704Z,33.70
2023-01-23T00:06:47.005Z,30.48
2023-01-23T00:09:20.542Z,29.88
2023-01-23T00:11:51.359Z,30.38
2023-01-23T00:14:22.371Z,28.98
2023-01-23T00:16:53.264Z,31.83
2023-01-23T00:19:24.138Z,33.42
2023-01-23T00:21:54.959Z,29.75
2023-01-23T00:24:28.398Z,28.15
2023-01-23T00:26:59.685Z,31.63
2023-01-23T00:29:31.029Z,29.08
2023-01-23T00:32:01.969Z,28.05
2023-01-23T00:34:32.859Z,29.85
2023-01-23T00:37:04.234Z,37.35
2023-01-23T00:39:38.301Z,35.75
2023-01-23T00:42:09.592Z,30.83
2023-01-23T00:44:40.405Z,27.73
2023-01-23T00:47:11.252Z,27.90
2023-01-23T00:49:42.413Z,29.83
2023-01-23T00:52:14.167Z,38.88
2023-01-23T00:54:47.632Z,38.17
2023-01-23T00:57:18.574Z,39.95
2023-01-23T00:59:50.364Z,32.92
2023-01-23T01:02:21.172Z,33.33
2023-01-23T01:04:52.053Z,34.97
2023-01-23T01:07:23.005Z,37.70
2023-01-23T01:09:56.475Z,37.70
2023-01-23T01:12:27.309Z,38.42
2023-01-23T01:14:58.182Z,35.47
2023-01-23T01:17:29.106Z,34.63
2023-01-23T01:19:59.895Z,28.08
2023-01-23T01:22:30.843Z,35.47
2023-01-23T01:25:04.318Z,37.58
2023-01-23T01:27:35.182Z,30.63
2023-01-23T01:30:07.661Z,34.13
2023-01-23T01:32:40.401Z,41.50
2023-01-23T01:35:12.744Z,43.60
2023-01-23T01:37:44.904Z,37.50
2023-01-23T01:40:21.254Z,37.75
2023-01-23T01:45:53.959Z,34.13
2023-01-23T01:48:30.132Z,30.58
2023-01-23T01:51:02.693Z,26.53
2023-01-23T01:53:36.008Z,29.27
2023-01-23T01:56:11.715Z,28.65
2023-01-23T01:58:44.513Z,33.60
2023-01-23T02:01:16.051Z,32.15
2023-01-23T02:03:48.172Z,34.45
2023-01-23T02:06:19.529Z,33.65
2023-01-23T02:08:57.310Z,32.50
2023-01-23T02:11:31.028Z,31.98
2023-01-23T02:14:02.340Z,32.08
2023-01-23T02:16:43.060Z,26.85
2023-01-23T02:19:26.869Z,27.15
2023-01-23T02:22:07.203Z,28.35
2023-01-23T02:24:43.844Z,29.80
2023-01-23T02:27:18.153Z,28.90
2023-01-23T02:29:52.174Z,31.23
2023-01-23T02:32:24.691Z,31.40
2023-01-23T02:34:59.051Z,25.48
2023-01-23T02:37:34.669Z,34.50
2023-01-23T02:42:46.484Z,26.27
2023-01-23T02:45:20.270Z,27.85
2023-01-23T02:47:52.483Z,28.80
2023-01-23T02:50:25.229Z,30.58
2023-01-23T02:52:58.206Z,30.95
2023-01-23T02:55:30.363Z,29.88
2023-01-23T02:58:16.239Z,28.83
2023-01-23T03:00:47.307Z,28.05
2023-01-23T03:03:19.044Z,25.05
2023-01-23T03:05:50.849Z,23.70
2023-01-23T03:08:21.657Z,27.02
2023-01-23T03:10:52.526Z,24.98
2023-01-23T03:13:25.920Z,24.52
2023-01-23T03:15:57.752Z,25.77
2023-01-23T03:18:31.139Z,29.08
2023-01-23T03:21:06.501Z,26.95
2023-01-23T03:23:38.186Z,25.88
2023-01-23T03:26:09.477Z,31.10
2023-01-23T03:28:55.553Z,41.75
2023-01-23T03:31:26.504Z,30.35
2023-01-23T03:33:57.884Z,27.77
2023-01-23T03:36:28.898Z,30.15
2023-01-23T03:39:12.040Z,31.30
2023-01-23T03:41:45.999Z,29.38
2023-01-23T03:44:21.796Z,31.08
2023-01-23T03:46:55.386Z,33.17
2023-01-23T03:49:27.407Z,31.48
2023-01-23T03:52:03.141Z,31.00
2023-01-23T03:54:34.800Z,28.80
2023-01-23T03:57:08.443Z,27.55
2023-01-23T03:59:54.281Z,27.80
2023-01-23T04:02:30.250Z,28.90
2023-01-23T04:05:01.208Z,31.58
2023-01-23T04:07:33.199Z,30.10
2023-01-23T04:10:04.092Z,28.50
2023-01-23T04:12:35.237Z,28.25
2023-01-23T04:15:09.963Z,31.25
2023-01-23T04:17:42.411Z,31.25
2023-01-23T04:20:14.377Z,29.38
2023-01-23T04:22:47.771Z,27.88
2023-01-23T04:25:19.395Z,27.77
2023-01-23T04:27:51.390Z,29.45
2023-01-23T04:30:25.192Z,31.73
2023-01-23T04:32:56.239Z,26.33
2023-01-23T04:35:27.244Z,29.45
2023-01-23T04:37:58.171Z,24.88
2023-01-23T04:40:29.745Z,27.00
2023-01-23T04:43:03.581Z,26.38
2023-01-23T04:45:40.750Z,21.73
2023-01-23T04:48:30.980Z,26.52
2023-01-23T04:51:02.388Z,27.90
2023-01-23T04:53:33.978Z,27.77
2023-01-23T04:56:07.160Z,22.73
2023-01-23T04:58:38.481Z,25.70
2023-01-23T05:01:13.550Z,26.80
2023-01-23T05:03:44.435Z,30.60
2023-01-23T05:06:15.270Z,32.53
2023-01-23T05:08:47.616Z,28.25
2023-01-23T05:11:26.264Z,28.63
2023-01-23T05:13:57.732Z,28.45
2023-01-23T05:16:31.479Z,32.83
2023-01-23T05:19:21.187Z,30.35
2023-01-23T05:21:52.751Z,29.00
2023-01-23T05:24:25.868Z,30.73
2023-01-23T05:26:59.153Z,30.52
2023-01-23T05:29:33.764Z,23.88
2023-01-23T05:32:17.432Z,21.88
2023-01-23T05:34:48.260Z,17.55
2023-01-23T05:37:32.691Z,18.42
2023-01-23T05:40:10.831Z,15.93
2023-01-23T05:43:20.096Z,20.88
2023-01-23T05:46:03.520Z,17.50
2023-01-23T05:48:55.101Z,19.98
2023-01-23T05:51:31.746Z,22.75
2023-01-23T05:54:04.759Z,19.58
2023-01-23T05:56:38.398Z,22.90
2023-01-23T05:59:41.467Z,20.77
2023-01-23T06:02:47.786Z,18.60
2023-01-23T06:05:40.495Z,20.33
2023-01-23T06:08:17.149Z,17.08
2023-01-23T06:10:48.176Z,20.67
2023-01-23T06:13:20.181Z,18.48
2023-01-23T06:15:51.071Z,17.63
2023-01-23T06:18:22.085Z,16.70
2023-01-23T06:21:01.492Z,20.60
2023-01-23T06:23:32.997Z,19.70
2023-01-23T06:26:04.611Z,15.73
2023-01-23T06:28:37.437Z,15.07
2023-01-23T06:31:10.698Z,17.88
2023-01-23T06:33:57.717Z,13.65
2023-01-23T06:36:37.053Z,17.48
2023-01-23T06:39:08.460Z,17.02
2023-01-23T06:41:44.800Z,17.55
2023-01-23T06:44:21.430Z,16.83
2023-01-23T06:46:52.447Z,15.75
2023-01-23T06:49:25.084Z,16.83
2023-01-23T06:51:59.620Z,18.60
2023-01-23T06:54:30.735Z,16.73
2023-01-23T06:57:05.781Z,19.65
2023-01-23T06:59:37.805Z,19.00
2023-01-23T07:02:14.122Z,18.13
2023-01-23T07:04:55.370Z,20.13
2023-01-23T07:07:28.919Z,19.10
2023-01-23T07:10:00.077Z,18.42
2023-01-23T07:12:31.148Z,23.75
2023-01-23T07:15:02.153Z,16.90
2023-01-23T07:17:39.658Z,18.58
2023-01-23T07:20:12.684Z,17.42
2023-01-23T07:22:54.670Z,16.50
2023-01-23T07:25:25.839Z,18.17
2023-01-23T07:27:56.718Z,19.02
2023-01-23T07:30:27.970Z,13.63
2023-01-23T07:32:58.987Z,15.70
2023-01-23T07:35:30.048Z,19.17
2023-01-23T07:38:03.561Z,14.85
2023-01-23T07:40:34.373Z,17.58
2023-01-23T07:43:05.233Z,17.42
2023-01-23T07:45:36.356Z,18.23
2023-01-23T07:48:07.967Z,15.40
2023-01-23T07:50:39.299Z,19.15
2023-01-23T07:53:13.021Z,19.13
2023-01-23T07:55:44.579Z,16.70
2023-01-23T07:58:15.372Z,20.33
2023-01-23T08:00:46.211Z,17.05
2023-01-23T08:03:17.077Z,17.05
2023-01-23T08:05:52.136Z,21.58
2023-01-23T08:08:25.622Z,19.10
2023-01-23T08:10:56.399Z,19.05
2023-01-23T08:13:27.262Z,15.60
2023-01-23T08:15:58.119Z,16.70
2023-01-23T08:18:29.287Z,17.65
2023-01-23T08:21:01.443Z,21.20
2023-01-23T08:23:36.952Z,18.23
2023-01-23T08:26:10.328Z,19.63
2023-01-23T08:28:41.063Z,26.25
2023-01-23T08:31:14.363Z,20.67
2023-01-23T08:33:45.364Z,17.30
2023-01-23T08:36:17.184Z,16.83
2023-01-23T08:38:50.842Z,19.58
2023-01-23T08:41:21.710Z,16.10
2023-01-23T08:43:52.549Z,14.25
2023-01-23T08:46:23.502Z,18.70
2023-01-23T08:48:54.343Z,17.98
2023-01-23T08:51:25.815Z,18.08
2023-01-23T08:53:59.279Z,16.38
2023-01-23T08:56:30.662Z,46.67
2023-01-23T08:59:01.580Z,21.40
2023-01-23T09:01:32.535Z,18.05
2023-01-23T09:04:03.421Z,15.30
2023-01-23T09:06:34.527Z,17.67
2023-01-23T09:09:08.025Z,16.17
2023-01-23T09:11:38.925Z,22.52
2023-01-23T09:14:09.656Z,19.25
2023-01-23T09:16:41.124Z,17.42
2023-01-23T09:19:13.120Z,18.92
2023-01-23T09:21:43.997Z,18.20
2023-01-23T09:24:17.506Z,17.33
2023-01-23T09:26:48.353Z,18.65
2023-01-23T09:29:19.157Z,19.52
2023-01-23T09:31:50.195Z,27.23
2023-01-23T09:34:21.196Z,18.70
2023-01-23T09:36:52.040Z,20.73
2023-01-23T09:39:25.921Z,21.48
2023-01-23T09:41:56.902Z,22.52
2023-01-23T09:44:35.907Z,30.98
2023-01-23T09:47:12.564Z,28.55
2023-01-23T09:49:49.949Z,27.85
2023-01-23T09:52:24.616Z,31.30
2023-01-23T09:55:02.901Z,24.02
2023-01-23T09:57:39.751Z,21.25
2023-01-23T10:02:48.175Z,20.45
2023-01-23T10:05:21.572Z,21.50
2023-01-23T10:08:05.186Z,24.77
2023-01-23T10:11:00.460Z,25.25
2023-01-23T10:13:48.393Z,24.13
2023-01-23T10:16:48.466Z,23.60
2023-01-23T10:19:37.600Z,22.88
2023-01-23T10:22:23.054Z,23.80
2023-01-23T10:24:56.997Z,24.50
2023-01-23T10:27:38.527Z,24.52
2023-01-23T10:30:21.439Z,24.25
2023-01-23T10:32:59.364Z,24.52
2023-01-23T10:35:38.813Z,24.08
2023-01-23T10:38:19.406Z,21.48
2023-01-23T10:41:03.630Z,23.70
2023-01-23T10:43:38.234Z,24.33
2023-01-23T10:46:15.608Z,22.73
2023-01-23T10:48:48.950Z,24.90
2023-01-23T10:51:47.621Z,22.08
2023-01-23T10:54:33.103Z,22.83
2023-01-23T10:57:07.592Z,42.50
2023-01-23T10:59:43.424Z,28.70
2023-01-23T11:02:29.416Z,26.10
2023-01-23T11:05:00.600Z,22.23
2023-01-23T11:07:33.758Z,25.77
2023-01-23T11:10:16.435Z,23.63
2023-01-23T11:12:52.554Z,21.58
2023-01-23T11:15:30.964Z,20.30
2023-01-23T11:18:04.618Z,24.17
2023-01-23T11:20:39.704Z,23.25
2023-01-23T11:23:20.912Z,22.75
2023-01-23T11:25:52.851Z,19.65
2023-01-23T11:28:27.551Z,19.77
2023-01-23T11:31:14.771Z,24.55
2023-01-23T11:33:52.504Z,21.42
2023-01-23T11:36:41.108Z,22.20
2023-01-23T11:39:21.898Z,22.55
2023-01-23T11:41:53.083Z,23.00
2023-01-23T11:44:28.221Z,25.02
2023-01-23T11:47:34.585Z,27.98
2023-01-23T11:50:29.150Z,31.20
2023-01-23T11:53:08.269Z,22.00
2023-01-23T11:56:02.057Z,25.85
2023-01-23T11:58:59.156Z,26.60
2023-01-23T12:01:37.082Z,29.43
2023-01-23T12:04:32.386Z,31.98
2023-01-23T12:07:16.966Z,26.58
2023-01-23T12:09:58.697Z,24.73
2023-01-23T12:12:45.290Z,25.65
2023-01-23T12:15:27.841Z,21.73
2023-01-23T12:18:08.134Z,27.50
2023-01-23T12:20:52.931Z,26.30
2023-01-23T12:23:45.679Z,22.58
2023-01-23T12:26:19.755Z,22.30
2023-01-23T12:29:23.993Z,24.35
2023-01-23T12:32:10.173Z,23.08
2023-01-23T12:35:07.751Z,23.90
2023-01-23T12:37:51.473Z,23.15
2023-01-23T12:40:29.961Z,21.60
2023-01-23T12:43:05.330Z,22.67
2023-01-23T12:45:37.301Z,22.83
2023-01-23T12:48:14.541Z,26.02
2023-01-23T12:50:49.435Z,25.33
2023-01-23T12:53:22.688Z,24.25
2023-01-23T12:56:03.097Z,21.92
2023-01-23T12:58:38.484Z,20.13
2023-01-23T13:01:19.215Z,21.98
2023-01-23T13:04:07.807Z,22.92
2023-01-23T13:06:58.823Z,22.15
2023-01-23T13:09:43.557Z,21.30
2023-01-23T13:12:22.871Z,21.85
2023-01-23T13:15:12.724Z,21.00
2023-01-23T13:17:50.759Z,22.63
2023-01-23T13:20:43.168Z,21.63
2023-01-23T13:23:32.486Z,20.52
2023-01-23T13:26:33.126Z,20.98
2023-01-23T13:29:08.508Z,20.10
2023-01-23T13:31:52.818Z,21.73
2023-01-23T13:34:42.065Z,20.10
2023-01-23T13:37:51.703Z,24.15
2023-01-23T13:40:26.916Z,21.75
2023-01-23T13:42:57.931Z,21.35
2023-01-23T13:45:39.562Z,20.63
2023-01-23T14:20:24.478Z,22.48
2023-01-23T14:22:58.106Z,20.92
2023-01-23T14:25:29.192Z,19.58
2023-01-23T14:28:09.930Z,22.65
2023-01-23T14:30:41.078Z,19.25
2023-01-23T14:33:15.150Z,20.25
2023-01-23T14:35:47.288Z,21.02
2023-01-23T14:38:21.660Z,24.90
2023-01-23T14:40:52.542Z,22.08
2023-01-23T14:43:28.447Z,33.90
2023-01-23T14:46:05.519Z,31.98
2023-01-23T14:48:40.953Z,21.42
2023-01-23T14:51:20.137Z,28.92
2023-01-23T14:53:57.545Z,22.92
2023-01-23T14:56:31.938Z,38.05
2023-01-23T14:59:08.439Z,20.33
2023-01-23T15:01:39.458Z,28.27
2023-01-23T15:04:23.705Z,25.08
2023-01-23T15:06:56.715Z,34.47
2023-01-23T15:09:31.969Z,22.17
2023-01-23T15:12:09.197Z,22.67
2023-01-23T15:14:44.181Z,26.55
2023-01-23T15:17:20.095Z,26.23
2023-01-23T15:19:55.687Z,31.55
2023-01-23T15:22:30.632Z,18.30
2023-01-23T15:25:20.699Z,25.45
2023-01-23T15:27:51.684Z,30.42
2023-01-23T15:30:43.751Z,20.90
2023-01-23T15:33:29.043Z,23.90
2023-01-23T15:36:08.543Z,24.77
2023-01-23T15:38:39.793Z,18.25
2023-01-23T15:41:15.851Z,47.65
2023-01-23T15:43:48.319Z,21.83
2023-01-23T15:46:21.810Z,18.85
2023-01-23T15:48:52.668Z,22.52
2023-01-23T15:51:23.695Z,20.50
2023-01-23T15:53:54.523Z,19.98
2023-01-23T15:56:30.215Z,16.55
2023-01-23T15:59:03.031Z,20.05
2023-01-23T16:01:36.537Z,24.83
2023-01-23T16:04:07.570Z,23.00
2023-01-23T16:06:39.312Z,20.05
2023-01-23T16:09:10.632Z,21.40
2023-01-23T16:11:41.609Z,20.73
2023-01-23T16:14:18.769Z,16.77
2023-01-23T16:16:52.276Z,18.98
2023-01-23T16:19:23.161Z,18.92
2023-01-23T16:22:04.287Z,18.90
2023-01-23T16:24:40.467Z,18.73
2023-01-23T16:27:18.823Z,20.90
2023-01-23T16:29:50.474Z,20.20
2023-01-23T16:32:24.196Z,21.20
2023-01-23T16:34:55.356Z,23.20
2023-01-23T16:37:27.243Z,20.42
2023-01-23T16:39:58.298Z,23.92
2023-01-23T16:42:31.056Z,23.73
2023-01-23T16:45:01.989Z,25.08
2023-01-23T16:47:35.813Z,23.27
2023-01-23T16:50:06.902Z,21.92
2023-01-23T16:52:38.565Z,19.92
2023-01-23T16:55:22.457Z,25.45
2023-01-23T16:57:56.462Z,20.88
2023-01-23T17:00:34.876Z,19.38
2023-01-23T17:03:11.830Z,21.42
2023-01-23T17:05:42.725Z,22.60
2023-01-23T17:08:20.762Z,21.98
2023-01-23T17:10:54.800Z,20.05
2023-01-23T17:13:26.853Z,21.75
2023-01-23T17:16:01.073Z,22.92
2023-01-23T17:18:37.637Z,28.70
2023-01-23T17:21:09.561Z,22.80
2023-01-23T17:23:40.626Z,20.83
2023-01-23T17:26:18.667Z,22.25
2023-01-23T17:28:49.646Z,26.17
2023-01-23T17:31:25.155Z,31.85
2023-01-23T17:33:59.022Z,26.95
2023-01-23T17:36:29.893Z,22.95
2023-01-23T17:39:02.277Z,24.50
2023-01-23T17:41:33.292Z,23.75
2023-01-23T17:44:04.624Z,25.83
2023-01-23T17:46:39.761Z,25.67
2023-01-23T17:49:30.316Z,23.20
2023-01-23T17:52:02.677Z,24.65
2023-01-23T17:54:33.655Z,35.80
2023-01-23T17:57:04.694Z,34.90
2023-01-23T17:59:35.512Z,36.00
2023-01-23T18:02:06.722Z,30.17
2023-01-23T18:04:46.882Z,32.50
2023-01-23T18:07:18.132Z,28.73
2023-01-23T18:09:49.067Z,30.50
2023-01-23T18:12:31.053Z,26.95
2023-01-23T18:15:12.232Z,26.98
2023-01-23T18:17:50.366Z,26.00
2023-01-23T18:20:26.470Z,26.60
2023-01-23T18:22:58.301Z,29.67
2023-01-23T18:25:31.306Z,34.30
2023-01-23T18:28:09.039Z,33.25
2023-01-23T18:30:48.977Z,27.35
2023-01-23T18:33:49.451Z,26.35
2023-01-23T18:36:35.215Z,30.83
2023-01-23T18:39:19.768Z,26.73
2023-01-23T18:42:05.330Z,34.75
2023-01-23T18:44:37.938Z,32.20
2023-01-23T18:47:14.622Z,31.40
2023-01-23T18:52:25.145Z,28.98
2023-01-23T18:55:02.694Z,28.25
2023-01-23T18:57:50.592Z,30.30
2023-01-23T19:00:26.022Z,33.10
2023-01-23T19:03:00.989Z,29.88
2023-01-23T19:05:33.904Z,28.10
2023-01-23T19:08:07.810Z,29.90
2023-01-23T19:10:48.665Z,31.02
2023-01-23T19:13:23.793Z,30.48
2023-01-23T19:16:01.444Z,29.55
2023-01-23T19:18:47.520Z,24.48
2023-01-23T19:21:23.839Z,32.60
2023-01-23T19:24:06.963Z,35.30
2023-01-23T19:26:39.841Z,27.23
2023-01-23T19:29:21.397Z,31.42
2023-01-23T19:32:09.813Z,28.88
2023-01-23T19:34:40.698Z,30.33
2023-01-23T19:37:11.755Z,25.35
2023-01-23T19:39:45.177Z,26.58
2023-01-23T19:42:17.509Z,27.73
2023-01-23T19:44:48.485Z,31.10
2023-01-23T19:47:19.233Z,29.25
2023-01-23T19:49:50.074Z,27.98
2023-01-23T19:52:21.137Z,30.55
2023-01-23T19:54:54.892Z,29.85
2023-01-23T19:57:25.704Z,29.15
2023-01-23T19:59:56.544Z,25.23
2023-01-23T20:02:27.478Z,22.83
2023-01-23T20:04:59.739Z,23.98
2023-01-23T20:07:30.638Z,28.90
2023-01-23T20:10:04.061Z,26.95
2023-01-23T20:12:34.889Z,22.50
2023-01-23T20:15:06.846Z,23.30
2023-01-23T20:17:37.715Z,23.30
2023-01-23T20:20:11.496Z,23.88
2023-01-23T20:22:42.994Z,20.30
2023-01-23T20:25:18.049Z,24.83
2023-01-23T20:27:49.072Z,23.45
2023-01-23T20:30:22.470Z,25.50
2023-01-23T20:32:54.721Z,24.25
2023-01-23T20:35:25.650Z,25.38
2023-01-23T20:37:56.773Z,28.63
2023-01-23T20:40:30.417Z,26.05
2023-01-23T20:43:01.152Z,30.40
2023-01-23T20:45:32.045Z,29.70
2023-01-23T20:48:02.814Z,28.00
2023-01-23T20:50:33.703Z,27.77
2023-01-23T20:53:19.309Z,29.80
2023-01-23T20:55:56.146Z,30.92
2023-01-23T21:01:09.890Z,32.30
2023-01-23T21:03:42.079Z,32.15
2023-01-23T21:06:14.942Z,31.67
2023-01-23T21:08:45.969Z,32.53
2023-01-23T21:11:21.546Z,32.30
2023-01-23T21:13:54.931Z,32.47
2023-01-23T21:16:25.689Z,35.42
2023-01-23T21:18:56.689Z,34.75
2023-01-23T21:21:27.409Z,38.05
2023-01-23T21:23:58.514Z,34.88
2023-01-23T21:26:32.998Z,35.10
2023-01-23T21:29:03.996Z,34.25
2023-01-23T21:31:39.355Z,34.97
2023-01-23T21:34:13.033Z,36.58
2023-01-23T21:36:45.111Z,37.25
2023-01-23T21:39:17.376Z,37.25
2023-01-23T21:41:50.853Z,35.85
2023-01-23T21:44:21.641Z,37.35
2023-01-23T21:46:52.537Z,38.63
2023-01-23T21:49:23.341Z,34.20
2023-01-23T21:51:54.160Z,36.80
2023-01-23T21:54:25.158Z,37.35
2023-01-23T21:56:58.489Z,39.00
2023-01-23T21:59:29.253Z,38.17
2023-01-23T22:01:57.425Z,39.42
2023-01-23T22:04:29.171Z,39.55
2023-01-23T22:07:01.602Z,44.78
2023-01-23T22:09:32.732Z,39.83
2023-01-23T22:12:06.205Z,40.42
2023-01-23T22:14:36.896Z,40.83
2023-01-23T22:17:08.272Z,38.55
2023-01-23T22:19:39.112Z,38.55
2023-01-23T22:22:10.318Z,38.95
2023-01-23T22:24:41.036Z,41.72
2023-01-23T22:27:14.501Z,38.83
2023-01-23T22:29:45.433Z,36.40
2023-01-23T22:32:16.299Z,41.13
2023-01-23T22:34:47.157Z,38.80
2023-01-23T22:37:18.232Z,35.63
2023-01-23T22:39:49.066Z,44.38
2023-01-23T22:42:22.496Z,39.40
2023-01-23T22:44:53.249Z,43.05
2023-01-23T22:47:24.024Z,39.50
2023-01-23T22:49:54.801Z,38.75
2023-01-23T22:52:25.508Z,38.50
2023-01-23T22:54:56.263Z,37.95
2023-01-23T22:57:29.564Z,40.15
2023-01-23T23:00:00.296Z,36.08
2023-01-23T23:02:31.024Z,37.30
2023-01-23T23:05:01.763Z,40.35
2023-01-23T23:07:32.626Z,37.67
2023-01-23T23:10:03.368Z,42.63
2023-01-23T23:12:36.852Z,43.85
2023-01-23T23:15:08.580Z,39.78
2023-01-23T23:17:39.392Z,42.05
2023-01-23T23:20:11.787Z,38.05
2023-01-23T23:22:42.616Z,40.30
2023-01-23T23:25:14.078Z,37.05
2023-01-23T23:27:47.908Z,36.97
2023-01-23T23:30:19.594Z,41.55
2023-01-23T23:32:50.549Z,39.47
2023-01-23T23:35:21.570Z,41.15
2023-01-23T23:37:52.558Z,39.75
2023-01-23T23:40:23.419Z,37.40
2023-01-23T23:42:56.753Z,41.08
2023-01-23T23:45:27.625Z,36.08
2023-01-23T23:47:58.492Z,34.42
2023-01-23T23:50:29.333Z,37.92
2023-01-23T23:53:00.231Z,37.13
2023-01-23T23:55:31.047Z,32.85
2023-01-23T23:58:05.389Z,34.00
